Stack Town, Pennsylvania
Current Conditions -  °F | °C
As of 10:56 PM on Saturday 22 Nov 2014 (Local Time) from KMDT Reporting Station
Scattered Clouds Scattered Clouds  
Wind Chill: 27°   Ceiling: Unl
Heat Index: 33°   Visibility: 10mi
Dew Point: 22°   Wind: 7mph
Humidity: 64%   Direction: 90°E
Pressure: 30.21"   Gusts: NA
Location:  40.1066°N, 76.6626°W
Report Text: KMDT 230356Z 09006KT 10SM SCT110 01/M06 A3021 RMK AO2 SLP236 T00061056
Loading
Personal Weather Stations






























Interactive Weather Map New forecast layout! Learn more

10-Day Weather Forecast

Advertisements
Track Severe Weather on mobile